Aérodrome :
LOGIN :

S'inscrire | Disclaimer

   EN    FR    IT 

 










Légende :    VFR   VFR Marginal   IFR   IFR Intensif   IFR Très Intensif
Visi : 
Plafond : 
>= 8 km
>= 3000ft
5 à 8 km
1000 à 3000 ft
1500m à 5 km
500 à 1000 ft
800 à 1500m
200 à 500 ft
< 800m
< 200 ft
Symboles :   Orages  Brouillard  Fortes neiges  Fortes précipitations  Vent > 20 kt
SIGMETs :   Divers  Orages  Givrage  Turbulence  Onde Orograph.  Cendres Volcan.






- Altitude de l'aérodrome : 33 ft
- Code IATA : MHZ


EGUN - RAF Mildenhall

DERNIER METAR :
  • 232256Z 17007KT 9999 OVC043 11/09 A3019 RMK AO2A SLP227 T01140088 $

METARs EXPIRÉS :
  • 232156Z 19007KT 9999 OVC043 11/09 A3019 RMK AO2A SLP227 T01140088 $
  • 232056Z 18009KT 9999 OVC041 11/09 A3021 RMK AO2A SLP233 T01140090 58003 $

TAF TAF EGUN
Valide du 23 à 20h jusqu'au 25 à 02h UTC


232000Z 2320/2502 18009KT 9999 OVC030 QNH3011INS
BECMG 2406/2407 18012KT 9999 FEW015 BKN025 QNH3008INS
BECMG 2410/2411 19010G20KT 9999 BKN030 OVC100 QNH3000INS
BECMG 2416/2417 19010G15KT 9999 BKN025 OVC040 QNH2999INS
BECMG 2420/2421 20012KT 9999 BKN015 OVC025 QNH2996INS
BECMG 2500/2501 20009KT 9999 SCT005 BKN009 OVC018 QNH2994INS TX14/2413Z TN09/2323Z



MET'MAP, la Météo Aéronautique d'un coup d'oeil ! - Copyright ORBIFLY Décembre 2007 - Disclaimer

ORBIFLY MET'MAP TEAM :

Programmation & Développement : Alexandra Zaïnal
Sur une idée originale de : Baudouin d'Aumeries
Assistance à la programmation : Marc-Olivier Méhu
Soutien technique & logistique : Manuel Goepfert

Contact : metmap@orbifly.com




SOURCES & CREDITS :

   NOAA